sensor_id;sensor_type;location;lat;lon;timestamp;P1;durP1;ratioP1;P2;durP2;ratioP2
42146;SDS011;27815;43.410;11.852;2023-11-19T00:02:08;15.63;;;8.27;;
42146;SDS011;27815;43.410;11.852;2023-11-19T00:06:11;10.90;;;6.40;;
42146;SDS011;27815;43.410;11.852;2023-11-19T00:10:17;10.02;;;5.82;;
42146;SDS011;27815;43.410;11.852;2023-11-19T00:14:23;13.30;;;5.17;;
42146;SDS011;27815;43.410;11.852;2023-11-19T00:18:28;8.63;;;5.45;;
42146;SDS011;27815;43.410;11.852;2023-11-19T00:22:32;8.23;;;4.78;;
42146;SDS011;27815;43.410;11.852;2023-11-19T00:26:35;10.73;;;5.38;;
42146;SDS011;27815;43.410;11.852;2023-11-19T00:30:42;8.45;;;5.07;;
42146;SDS011;27815;43.410;11.852;2023-11-19T00:34:44;14.70;;;7.90;;
42146;SDS011;27815;43.410;11.852;2023-11-19T00:38:53;12.50;;;7.18;;
42146;SDS011;27815;43.410;11.852;2023-11-19T00:42:57;14.50;;;6.82;;
42146;SDS011;27815;43.410;11.852;2023-11-19T00:47:03;12.82;;;8.45;;
42146;SDS011;27815;43.410;11.852;2023-11-19T00:51:07;8.82;;;5.07;;
42146;SDS011;27815;43.410;11.852;2023-11-19T00:55:10;8.07;;;4.72;;
42146;SDS011;27815;43.410;11.852;2023-11-19T00:59:15;11.85;;;6.53;;
42146;SDS011;27815;43.410;11.852;2023-11-19T01:03:19;11.80;;;6.15;;
42146;SDS011;27815;43.410;11.852;2023-11-19T01:07:23;11.82;;;6.32;;
42146;SDS011;27815;43.410;11.852;2023-11-19T01:11:28;7.43;;;5.03;;
42146;SDS011;27815;43.410;11.852;2023-11-19T01:15:31;8.25;;;5.05;;
42146;SDS011;27815;43.410;11.852;2023-11-19T01:19:35;9.52;;;5.25;;
42146;SDS011;27815;43.410;11.852;2023-11-19T01:23:41;8.32;;;4.50;;
42146;SDS011;27815;43.410;11.852;2023-11-19T01:27:48;9.45;;;5.50;;
42146;SDS011;27815;43.410;11.852;2023-11-19T01:31:53;12.48;;;5.28;;
42146;SDS011;27815;43.410;11.852;2023-11-19T01:35:57;10.18;;;6.55;;
42146;SDS011;27815;43.410;11.852;2023-11-19T01:40:01;14.75;;;9.18;;
42146;SDS011;27815;43.410;11.852;2023-11-19T01:44:06;17.95;;;11.57;;
42146;SDS011;27815;43.410;11.852;2023-11-19T01:48:10;14.55;;;7.63;;
42146;SDS011;27815;43.410;11.852;2023-11-19T01:52:14;15.55;;;9.95;;
42146;SDS011;27815;43.410;11.852;2023-11-19T01:56:17;16.25;;;8.60;;
42146;SDS011;27815;43.410;11.852;2023-11-19T02:00:22;13.32;;;8.40;;
42146;SDS011;27815;43.410;11.852;2023-11-19T02:04:27;15.77;;;10.00;;
42146;SDS011;27815;43.410;11.852;2023-11-19T02:08:32;15.35;;;9.60;;
42146;SDS011;27815;43.410;11.852;2023-11-19T02:12:54;15.35;;;10.30;;
42146;SDS011;27815;43.410;11.852;2023-11-19T02:17:07;19.85;;;11.82;;
42146;SDS011;27815;43.410;11.852;2023-11-19T02:21:28;17.08;;;11.27;;
42146;SDS011;27815;43.410;11.852;2023-11-19T02:25:32;22.38;;;13.00;;
42146;SDS011;27815;43.410;11.852;2023-11-19T02:29:36;19.48;;;11.40;;
42146;SDS011;27815;43.410;11.852;2023-11-19T02:33:39;19.00;;;11.45;;
42146;SDS011;27815;43.410;11.852;2023-11-19T02:37:42;18.15;;;11.35;;
42146;SDS011;27815;43.410;11.852;2023-11-19T02:41:47;14.85;;;9.65;;
42146;SDS011;27815;43.410;11.852;2023-11-19T02:45:53;14.50;;;9.95;;
42146;SDS011;27815;43.410;11.852;2023-11-19T02:49:59;18.30;;;9.98;;
42146;SDS011;27815;43.410;11.852;2023-11-19T02:54:03;19.08;;;9.70;;
42146;SDS011;27815;43.410;11.852;2023-11-19T02:58:19;12.57;;;8.17;;
42146;SDS011;27815;43.410;11.852;2023-11-19T03:02:26;13.98;;;8.82;;
42146;SDS011;27815;43.410;11.852;2023-11-19T03:06:36;10.40;;;6.78;;
42146;SDS011;27815;43.410;11.852;2023-11-19T03:10:40;15.43;;;7.38;;
42146;SDS011;27815;43.410;11.852;2023-11-19T03:14:45;9.70;;;5.70;;
42146;SDS011;27815;43.410;11.852;2023-11-19T03:18:54;14.88;;;9.52;;
42146;SDS011;27815;43.410;11.852;2023-11-19T03:22:58;13.30;;;9.40;;
42146;SDS011;27815;43.410;11.852;2023-11-19T03:27:03;16.17;;;9.25;;
42146;SDS011;27815;43.410;11.852;2023-11-19T03:31:09;14.80;;;9.65;;
42146;SDS011;27815;43.410;11.852;2023-11-19T03:35:14;15.20;;;9.10;;
42146;SDS011;27815;43.410;11.852;2023-11-19T03:39:19;10.63;;;7.32;;
42146;SDS011;27815;43.410;11.852;2023-11-19T03:43:23;12.05;;;7.03;;
42146;SDS011;27815;43.410;11.852;2023-11-19T03:47:37;12.43;;;7.10;;
42146;SDS011;27815;43.410;11.852;2023-11-19T03:51:41;11.65;;;7.78;;
42146;SDS011;27815;43.410;11.852;2023-11-19T03:55:49;15.55;;;9.93;;
42146;SDS011;27815;43.410;11.852;2023-11-19T03:59:53;15.73;;;9.82;;
42146;SDS011;27815;43.410;11.852;2023-11-19T04:04:15;16.33;;;9.77;;
42146;SDS011;27815;43.410;11.852;2023-11-19T04:08:21;20.05;;;13.18;;
42146;SDS011;27815;43.410;11.852;2023-11-19T04:12:30;18.30;;;11.55;;
42146;SDS011;27815;43.410;11.852;2023-11-19T04:16:37;16.75;;;11.98;;
42146;SDS011;27815;43.410;11.852;2023-11-19T04:20:42;17.95;;;10.95;;
42146;SDS011;27815;43.410;11.852;2023-11-19T04:24:45;14.75;;;9.90;;
42146;SDS011;27815;43.410;11.852;2023-11-19T04:28:59;19.23;;;10.65;;
42146;SDS011;27815;43.410;11.852;2023-11-19T04:33:20;16.17;;;9.68;;
42146;SDS011;27815;43.410;11.852;2023-11-19T04:37:23;17.88;;;10.18;;
42146;SDS011;27815;43.410;11.852;2023-11-19T04:41:34;14.75;;;9.25;;
42146;SDS011;27815;43.410;11.852;2023-11-19T04:45:37;17.38;;;9.88;;
42146;SDS011;27815;43.410;11.852;2023-11-19T04:49:40;18.60;;;10.57;;
42146;SDS011;27815;43.410;11.852;2023-11-19T04:53:46;13.60;;;9.52;;
42146;SDS011;27815;43.410;11.852;2023-11-19T04:57:56;17.85;;;10.27;;
42146;SDS011;27815;43.410;11.852;2023-11-19T05:02:11;17.33;;;10.07;;
42146;SDS011;27815;43.410;11.852;2023-11-19T05:06:15;17.38;;;10.52;;
42146;SDS011;27815;43.410;11.852;2023-11-19T05:10:18;15.15;;;10.00;;
42146;SDS011;27815;43.410;11.852;2023-11-19T05:14:21;17.48;;;10.27;;
42146;SDS011;27815;43.410;11.852;2023-11-19T05:18:26;18.48;;;12.02;;
42146;SDS011;27815;43.410;11.852;2023-11-19T05:22:29;21.25;;;13.13;;
42146;SDS011;27815;43.410;11.852;2023-11-19T05:26:32;24.33;;;14.45;;
42146;SDS011;27815;43.410;11.852;2023-11-19T05:30:36;22.48;;;12.50;;
42146;SDS011;27815;43.410;11.852;2023-11-19T05:34:39;18.17;;;11.95;;
42146;SDS011;27815;43.410;11.852;2023-11-19T05:38:49;15.48;;;10.07;;
42146;SDS011;27815;43.410;11.852;2023-11-19T05:43:04;16.17;;;9.85;;
42146;SDS011;27815;43.410;11.852;2023-11-19T05:47:08;22.55;;;13.77;;
42146;SDS011;27815;43.410;11.852;2023-11-19T05:51:11;22.50;;;13.93;;
42146;SDS011;27815;43.410;11.852;2023-11-19T05:55:22;24.98;;;15.18;;
42146;SDS011;27815;43.410;11.852;2023-11-19T05:59:26;19.52;;;13.25;;
42146;SDS011;27815;43.410;11.852;2023-11-19T06:03:30;20.90;;;12.57;;
42146;SDS011;27815;43.410;11.852;2023-11-19T06:07:33;19.60;;;13.13;;
42146;SDS011;27815;43.410;11.852;2023-11-19T06:11:38;19.35;;;12.88;;
42146;SDS011;27815;43.410;11.852;2023-11-19T06:15:41;17.67;;;12.20;;
42146;SDS011;27815;43.410;11.852;2023-11-19T06:19:45;22.48;;;13.35;;
42146;SDS011;27815;43.410;11.852;2023-11-19T06:23:48;19.13;;;12.68;;
42146;SDS011;27815;43.410;11.852;2023-11-19T06:27:55;20.95;;;12.48;;
42146;SDS011;27815;43.410;11.852;2023-11-19T06:32:00;19.52;;;11.48;;
42146;SDS011;27815;43.410;11.852;2023-11-19T06:36:18;25.10;;;10.73;;
42146;SDS011;27815;43.410;11.852;2023-11-19T06:40:25;19.60;;;12.77;;
42146;SDS011;27815;43.410;11.852;2023-11-19T06:44:29;25.05;;;15.63;;
42146;SDS011;27815;43.410;11.852;2023-11-19T06:48:32;20.92;;;14.75;;
42146;SDS011;27815;43.410;11.852;2023-11-19T06:52:35;25.00;;;14.95;;
42146;SDS011;27815;43.410;11.852;2023-11-19T06:56:40;21.05;;;13.23;;
42146;SDS011;27815;43.410;11.852;2023-11-19T07:00:44;27.75;;;14.60;;
42146;SDS011;27815;43.410;11.852;2023-11-19T07:04:48;20.55;;;14.57;;
42146;SDS011;27815;43.410;11.852;2023-11-19T07:08:52;22.02;;;14.98;;
42146;SDS011;27815;43.410;11.852;2023-11-19T07:12:56;26.20;;;16.85;;
42146;SDS011;27815;43.410;11.852;2023-11-19T07:17:00;27.65;;;17.17;;
42146;SDS011;27815;43.410;11.852;2023-11-19T07:21:04;22.13;;;14.73;;
42146;SDS011;27815;43.410;11.852;2023-11-19T07:25:12;25.15;;;16.52;;
42146;SDS011;27815;43.410;11.852;2023-11-19T07:29:15;25.55;;;16.45;;
42146;SDS011;27815;43.410;11.852;2023-11-19T07:33:31;25.17;;;17.45;;
42146;SDS011;27815;43.410;11.852;2023-11-19T07:37:35;25.85;;;17.38;;
42146;SDS011;27815;43.410;11.852;2023-11-19T07:41:38;21.23;;;14.73;;
42146;SDS011;27815;43.410;11.852;2023-11-19T07:45:43;22.58;;;15.00;;
42146;SDS011;27815;43.410;11.852;2023-11-19T07:49:47;23.67;;;16.17;;
42146;SDS011;27815;43.410;11.852;2023-11-19T07:53:53;23.75;;;15.95;;
42146;SDS011;27815;43.410;11.852;2023-11-19T07:57:57;25.33;;;17.25;;
42146;SDS011;27815;43.410;11.852;2023-11-19T08:02:02;24.02;;;18.02;;
42146;SDS011;27815;43.410;11.852;2023-11-19T08:06:09;25.38;;;17.33;;
42146;SDS011;27815;43.410;11.852;2023-11-19T08:10:13;24.25;;;18.73;;
42146;SDS011;27815;43.410;11.852;2023-11-19T08:14:17;27.27;;;18.77;;
42146;SDS011;27815;43.410;11.852;2023-11-19T08:18:21;23.35;;;15.48;;
42146;SDS011;27815;43.410;11.852;2023-11-19T08:22:24;24.40;;;14.98;;
42146;SDS011;27815;43.410;11.852;2023-11-19T08:26:28;19.90;;;15.75;;
42146;SDS011;27815;43.410;11.852;2023-11-19T08:30:32;22.60;;;15.93;;
42146;SDS011;27815;43.410;11.852;2023-11-19T08:34:34;20.48;;;15.40;;
42146;SDS011;27815;43.410;11.852;2023-11-19T08:38:38;19.02;;;14.02;;
42146;SDS011;27815;43.410;11.852;2023-11-19T08:43:11;20.02;;;12.18;;
42146;SDS011;27815;43.410;11.852;2023-11-19T08:47:22;17.65;;;12.13;;
42146;SDS011;27815;43.410;11.852;2023-11-19T08:51:34;15.05;;;11.45;;
42146;SDS011;27815;43.410;11.852;2023-11-19T08:55:42;14.18;;;10.27;;
42146;SDS011;27815;43.410;11.852;2023-11-19T08:59:53;13.38;;;11.10;;
42146;SDS011;27815;43.410;11.852;2023-11-19T09:04:01;18.95;;;13.75;;
42146;SDS011;27815;43.410;11.852;2023-11-19T09:08:12;14.38;;;11.00;;
42146;SDS011;27815;43.410;11.852;2023-11-19T09:12:19;14.30;;;10.90;;
42146;SDS011;27815;43.410;11.852;2023-11-19T09:16:22;16.20;;;12.55;;
42146;SDS011;27815;43.410;11.852;2023-11-19T09:20:26;13.70;;;11.23;;
42146;SDS011;27815;43.410;11.852;2023-11-19T09:24:29;14.10;;;9.93;;
42146;SDS011;27815;43.410;11.852;2023-11-19T09:28:32;13.73;;;10.35;;
42146;SDS011;27815;43.410;11.852;2023-11-19T09:32:37;13.63;;;9.85;;
42146;SDS011;27815;43.410;11.852;2023-11-19T09:36:43;16.50;;;11.98;;
42146;SDS011;27815;43.410;11.852;2023-11-19T09:40:48;12.18;;;9.55;;
42146;SDS011;27815;43.410;11.852;2023-11-19T09:44:57;20.08;;;12.57;;
42146;SDS011;27815;43.410;11.852;2023-11-19T09:49:42;14.27;;;11.45;;
42146;SDS011;27815;43.410;11.852;2023-11-19T09:53:47;14.68;;;10.68;;
42146;SDS011;27815;43.410;11.852;2023-11-19T09:57:50;18.65;;;13.38;;
42146;SDS011;27815;43.410;11.852;2023-11-19T10:01:55;19.33;;;12.80;;
42146;SDS011;27815;43.410;11.852;2023-11-19T10:06:08;17.70;;;12.80;;
42146;SDS011;27815;43.410;11.852;2023-11-19T10:10:13;19.67;;;13.38;;
42146;SDS011;27815;43.410;11.852;2023-11-19T10:14:22;25.52;;;16.75;;
42146;SDS011;27815;43.410;11.852;2023-11-19T10:18:28;21.10;;;13.45;;
42146;SDS011;27815;43.410;11.852;2023-11-19T10:22:36;15.13;;;11.05;;
42146;SDS011;27815;43.410;11.852;2023-11-19T10:26:40;16.48;;;11.57;;
42146;SDS011;27815;43.410;11.852;2023-11-19T10:30:46;18.75;;;11.27;;
42146;SDS011;27815;43.410;11.852;2023-11-19T10:34:52;19.73;;;13.35;;
42146;SDS011;27815;43.410;11.852;2023-11-19T10:39:07;12.75;;;8.73;;
42146;SDS011;27815;43.410;11.852;2023-11-19T10:43:13;14.17;;;9.00;;
42146;SDS011;27815;43.410;11.852;2023-11-19T10:47:19;15.27;;;10.17;;
42146;SDS011;27815;43.410;11.852;2023-11-19T10:51:44;18.00;;;11.48;;
42146;SDS011;27815;43.410;11.852;2023-11-19T10:55:51;13.85;;;8.77;;
42146;SDS011;27815;43.410;11.852;2023-11-19T11:00:00;14.18;;;9.35;;
42146;SDS011;27815;43.410;11.852;2023-11-19T11:04:10;11.73;;;7.90;;
42146;SDS011;27815;43.410;11.852;2023-11-19T11:08:26;10.18;;;7.18;;
42146;SDS011;27815;43.410;11.852;2023-11-19T11:12:37;13.52;;;8.48;;
42146;SDS011;27815;43.410;11.852;2023-11-19T11:16:43;11.90;;;7.95;;
42146;SDS011;27815;43.410;11.852;2023-11-19T11:21:15;10.32;;;6.72;;
42146;SDS011;27815;43.410;11.852;2023-11-19T11:25:47;13.70;;;9.00;;
42146;SDS011;27815;43.410;11.852;2023-11-19T11:36:11;10.60;;;7.22;;
42146;SDS011;27815;43.410;11.852;2023-11-19T11:40:23;12.68;;;6.70;;
42146;SDS011;27815;43.410;11.852;2023-11-19T11:45:34;8.55;;;4.10;;
42146;SDS011;27815;43.410;11.852;2023-11-19T11:49:24;11.32;;;4.05;;
42146;SDS011;27815;43.410;11.852;2023-11-19T11:53:29;16.75;;;10.27;;
42146;SDS011;27815;43.410;11.852;2023-11-19T11:57:43;23.65;;;13.40;;
42146;SDS011;27815;43.410;11.852;2023-11-19T12:01:58;13.02;;;9.70;;
42146;SDS011;27815;43.410;11.852;2023-11-19T12:06:08;16.48;;;8.35;;
42146;SDS011;27815;43.410;11.852;2023-11-19T12:10:13;16.88;;;9.75;;
42146;SDS011;27815;43.410;11.852;2023-11-19T12:14:47;11.85;;;7.55;;
42146;SDS011;27815;43.410;11.852;2023-11-19T12:19:04;15.13;;;8.10;;
42146;SDS011;27815;43.410;11.852;2023-11-19T12:23:08;11.75;;;7.40;;
42146;SDS011;27815;43.410;11.852;2023-11-19T12:27:25;13.90;;;7.72;;
42146;SDS011;27815;43.410;11.852;2023-11-19T12:31:29;12.88;;;8.27;;
42146;SDS011;27815;43.410;11.852;2023-11-19T12:35:45;17.67;;;9.73;;
42146;SDS011;27815;43.410;11.852;2023-11-19T12:39:52;28.70;;;18.23;;
42146;SDS011;27815;43.410;11.852;2023-11-19T12:44:05;31.92;;;19.52;;
42146;SDS011;27815;43.410;11.852;2023-11-19T12:48:15;21.35;;;13.70;;
42146;SDS011;27815;43.410;11.852;2023-11-19T12:52:24;23.88;;;15.68;;
42146;SDS011;27815;43.410;11.852;2023-11-19T12:56:33;18.55;;;12.32;;
42146;SDS011;27815;43.410;11.852;2023-11-19T13:00:37;14.48;;;8.82;;
42146;SDS011;27815;43.410;11.852;2023-11-19T13:04:44;16.98;;;11.50;;
42146;SDS011;27815;43.410;11.852;2023-11-19T13:08:48;17.67;;;13.25;;
42146;SDS011;27815;43.410;11.852;2023-11-19T13:13:04;20.08;;;12.23;;
42146;SDS011;27815;43.410;11.852;2023-11-19T13:17:14;18.40;;;12.17;;
42146;SDS011;27815;43.410;11.852;2023-11-19T13:21:17;16.70;;;11.57;;
42146;SDS011;27815;43.410;11.852;2023-11-19T13:25:30;16.10;;;12.07;;
42146;SDS011;27815;43.410;11.852;2023-11-19T13:29:42;17.88;;;12.02;;
42146;SDS011;27815;43.410;11.852;2023-11-19T13:33:49;22.15;;;15.52;;
42146;SDS011;27815;43.410;11.852;2023-11-19T13:37:55;24.23;;;14.18;;
42146;SDS011;27815;43.410;11.852;2023-11-19T13:42:02;21.35;;;14.88;;
42146;SDS011;27815;43.410;11.852;2023-11-19T13:46:11;19.65;;;13.55;;
42146;SDS011;27815;43.410;11.852;2023-11-19T13:50:15;21.55;;;13.93;;
42146;SDS011;27815;43.410;11.852;2023-11-19T13:54:21;18.37;;;13.60;;
42146;SDS011;27815;43.410;11.852;2023-11-19T13:58:27;20.65;;;13.63;;
42146;SDS011;27815;43.410;11.852;2023-11-19T14:02:49;21.38;;;12.32;;
42146;SDS011;27815;43.410;11.852;2023-11-19T14:07:00;23.35;;;17.02;;
42146;SDS011;27815;43.410;11.852;2023-11-19T14:11:03;21.73;;;14.00;;
42146;SDS011;27815;43.410;11.852;2023-11-19T14:15:14;21.55;;;12.95;;
42146;SDS011;27815;43.410;11.852;2023-11-19T14:19:19;20.73;;;14.45;;
42146;SDS011;27815;43.410;11.852;2023-11-19T14:23:24;22.90;;;14.20;;
42146;SDS011;27815;43.410;11.852;2023-11-19T14:27:29;22.17;;;14.50;;
42146;SDS011;27815;43.410;11.852;2023-11-19T14:31:33;22.08;;;13.80;;
42146;SDS011;27815;43.410;11.852;2023-11-19T14:35:36;20.35;;;13.15;;
42146;SDS011;27815;43.410;11.852;2023-11-19T14:39:39;21.08;;;13.80;;
42146;SDS011;27815;43.410;11.852;2023-11-19T14:43:44;23.30;;;14.48;;
42146;SDS011;27815;43.410;11.852;2023-11-19T14:47:47;19.58;;;13.02;;
42146;SDS011;27815;43.410;11.852;2023-11-19T14:51:51;19.23;;;13.82;;
42146;SDS011;27815;43.410;11.852;2023-11-19T14:55:58;21.33;;;13.00;;
42146;SDS011;27815;43.410;11.852;2023-11-19T15:00:01;18.00;;;13.75;;
42146;SDS011;27815;43.410;11.852;2023-11-19T15:04:11;23.27;;;14.63;;
42146;SDS011;27815;43.410;11.852;2023-11-19T15:08:14;19.48;;;13.40;;
42146;SDS011;27815;43.410;11.852;2023-11-19T15:12:19;22.27;;;16.13;;
42146;SDS011;27815;43.410;11.852;2023-11-19T15:16:30;20.92;;;15.10;;
42146;SDS011;27815;43.410;11.852;2023-11-19T15:20:37;22.65;;;14.30;;
42146;SDS011;27815;43.410;11.852;2023-11-19T15:24:41;23.30;;;15.65;;
42146;SDS011;27815;43.410;11.852;2023-11-19T15:28:44;25.90;;;18.17;;
42146;SDS011;27815;43.410;11.852;2023-11-19T15:32:47;24.25;;;16.63;;
42146;SDS011;27815;43.410;11.852;2023-11-19T15:36:51;22.15;;;16.10;;
42146;SDS011;27815;43.410;11.852;2023-11-19T15:40:56;35.70;;;24.90;;
42146;SDS011;27815;43.410;11.852;2023-11-19T15:44:59;36.08;;;24.52;;
42146;SDS011;27815;43.410;11.852;2023-11-19T15:49:09;24.75;;;18.73;;
42146;SDS011;27815;43.410;11.852;2023-11-19T15:53:13;35.70;;;20.73;;
42146;SDS011;27815;43.410;11.852;2023-11-19T15:57:23;34.08;;;21.90;;
42146;SDS011;27815;43.410;11.852;2023-11-19T16:02:40;31.65;;;19.88;;
42146;SDS011;27815;43.410;11.852;2023-11-19T16:08:18;36.30;;;22.50;;
42146;SDS011;27815;43.410;11.852;2023-11-19T16:14:26;30.48;;;20.55;;
42146;SDS011;27815;43.410;11.852;2023-11-19T16:19:16;43.53;;;26.85;;
42146;SDS011;27815;43.410;11.852;2023-11-19T16:24:59;30.63;;;20.30;;
42146;SDS011;27815;43.410;11.852;2023-11-19T16:29:11;53.15;;;33.42;;
42146;SDS011;27815;43.410;11.852;2023-11-19T16:40:40;113.70;;;52.75;;
42146;SDS011;27815;43.410;11.852;2023-11-19T16:55:32;31.48;;;24.45;;
42146;SDS011;27815;43.410;11.852;2023-11-19T17:01:52;87.03;;;43.80;;
42146;SDS011;27815;43.410;11.852;2023-11-19T17:18:10;95.90;;;41.72;;
42146;SDS011;27815;43.410;11.852;2023-11-19T17:31:23;21.80;;;14.98;;
42146;SDS011;27815;43.410;11.852;2023-11-19T17:36:59;29.63;;;18.50;;
42146;SDS011;27815;43.410;11.852;2023-11-19T17:43:04;33.23;;;21.10;;
42146;SDS011;27815;43.410;11.852;2023-11-19T17:49:04;35.50;;;20.45;;
42146;SDS011;27815;43.410;11.852;2023-11-19T17:53:49;30.27;;;19.02;;
42146;SDS011;27815;43.410;11.852;2023-11-19T18:04:15;44.80;;;27.10;;
42146;SDS011;27815;43.410;11.852;2023-11-19T18:08:47;41.90;;;27.25;;
42146;SDS011;27815;43.410;11.852;2023-11-19T18:14:01;35.95;;;23.65;;
42146;SDS011;27815;43.410;11.852;2023-11-19T18:18:13;32.85;;;24.35;;
42146;SDS011;27815;43.410;11.852;2023-11-19T18:22:26;54.15;;;31.40;;
42146;SDS011;27815;43.410;11.852;2023-11-19T18:26:29;49.35;;;28.55;;
42146;SDS011;27815;43.410;11.852;2023-11-19T18:30:35;49.80;;;29.63;;
42146;SDS011;27815;43.410;11.852;2023-11-19T18:34:38;37.67;;;25.17;;
42146;SDS011;27815;43.410;11.852;2023-11-19T18:38:43;39.55;;;24.02;;
42146;SDS011;27815;43.410;11.852;2023-11-19T18:42:47;37.53;;;25.00;;
42146;SDS011;27815;43.410;11.852;2023-11-19T18:46:55;35.90;;;23.83;;
42146;SDS011;27815;43.410;11.852;2023-11-19T18:51:03;25.55;;;17.70;;
42146;SDS011;27815;43.410;11.852;2023-11-19T18:55:06;22.25;;;13.90;;
42146;SDS011;27815;43.410;11.852;2023-11-19T18:59:11;15.15;;;9.27;;
42146;SDS011;27815;43.410;11.852;2023-11-19T19:03:15;10.50;;;6.80;;
42146;SDS011;27815;43.410;11.852;2023-11-19T19:07:24;11.85;;;6.57;;
42146;SDS011;27815;43.410;11.852;2023-11-19T19:11:30;11.68;;;7.45;;
42146;SDS011;27815;43.410;11.852;2023-11-19T19:15:35;10.60;;;6.32;;
42146;SDS011;27815;43.410;11.852;2023-11-19T19:19:38;9.05;;;5.25;;
42146;SDS011;27815;43.410;11.852;2023-11-19T19:23:42;10.02;;;5.32;;
42146;SDS011;27815;43.410;11.852;2023-11-19T19:27:45;11.00;;;5.00;;
42146;SDS011;27815;43.410;11.852;2023-11-19T19:31:55;9.85;;;5.82;;
42146;SDS011;27815;43.410;11.852;2023-11-19T19:35:58;9.38;;;4.85;;
42146;SDS011;27815;43.410;11.852;2023-11-19T19:40:02;7.13;;;5.03;;
42146;SDS011;27815;43.410;11.852;2023-11-19T19:44:26;6.95;;;4.13;;
42146;SDS011;27815;43.410;11.852;2023-11-19T19:48:29;8.55;;;4.25;;
42146;SDS011;27815;43.410;11.852;2023-11-19T19:52:32;8.43;;;4.57;;
42146;SDS011;27815;43.410;11.852;2023-11-19T19:56:39;8.68;;;4.78;;
42146;SDS011;27815;43.410;11.852;2023-11-19T20:00:42;17.50;;;7.70;;
42146;SDS011;27815;43.410;11.852;2023-11-19T20:04:45;11.60;;;5.35;;
42146;SDS011;27815;43.410;11.852;2023-11-19T20:08:52;9.07;;;4.97;;
42146;SDS011;27815;43.410;11.852;2023-11-19T20:12:55;9.52;;;4.80;;
42146;SDS011;27815;43.410;11.852;2023-11-19T20:16:58;8.15;;;4.50;;
42146;SDS011;27815;43.410;11.852;2023-11-19T20:21:04;9.30;;;5.28;;
42146;SDS011;27815;43.410;11.852;2023-11-19T20:25:11;8.55;;;4.38;;
42146;SDS011;27815;43.410;11.852;2023-11-19T20:29:14;8.77;;;4.72;;
42146;SDS011;27815;43.410;11.852;2023-11-19T20:33:17;10.02;;;5.22;;
42146;SDS011;27815;43.410;11.852;2023-11-19T20:37:20;11.20;;;5.00;;
42146;SDS011;27815;43.410;11.852;2023-11-19T20:41:24;7.95;;;4.57;;
42146;SDS011;27815;43.410;11.852;2023-11-19T20:45:27;10.18;;;3.97;;
42146;SDS011;27815;43.410;11.852;2023-11-19T20:49:32;8.65;;;4.50;;
42146;SDS011;27815;43.410;11.852;2023-11-19T20:53:36;12.75;;;5.07;;
42146;SDS011;27815;43.410;11.852;2023-11-19T20:57:41;7.15;;;4.20;;
42146;SDS011;27815;43.410;11.852;2023-11-19T21:01:44;15.60;;;7.05;;
42146;SDS011;27815;43.410;11.852;2023-11-19T21:05:48;15.60;;;6.20;;
42146;SDS011;27815;43.410;11.852;2023-11-19T21:09:56;15.55;;;9.65;;
42146;SDS011;27815;43.410;11.852;2023-11-19T21:14:00;12.43;;;6.82;;
42146;SDS011;27815;43.410;11.852;2023-11-19T21:18:03;9.60;;;4.30;;
42146;SDS011;27815;43.410;11.852;2023-11-19T21:22:05;8.00;;;3.97;;
42146;SDS011;27815;43.410;11.852;2023-11-19T21:26:09;9.25;;;4.43;;
42146;SDS011;27815;43.410;11.852;2023-11-19T21:30:13;14.35;;;4.72;;
42146;SDS011;27815;43.410;11.852;2023-11-19T21:34:15;8.02;;;4.00;;
42146;SDS011;27815;43.410;11.852;2023-11-19T21:38:19;10.00;;;4.22;;
42146;SDS011;27815;43.410;11.852;2023-11-19T21:42:26;7.30;;;3.72;;
42146;SDS011;27815;43.410;11.852;2023-11-19T21:46:29;9.55;;;4.28;;
42146;SDS011;27815;43.410;11.852;2023-11-19T21:50:34;9.00;;;3.40;;
42146;SDS011;27815;43.410;11.852;2023-11-19T21:54:37;7.72;;;3.17;;
42146;SDS011;27815;43.410;11.852;2023-11-19T21:58:40;7.35;;;3.10;;
42146;SDS011;27815;43.410;11.852;2023-11-19T22:02:43;6.25;;;3.05;;
42146;SDS011;27815;43.410;11.852;2023-11-19T22:06:46;7.78;;;3.75;;
42146;SDS011;27815;43.410;11.852;2023-11-19T22:10:49;6.00;;;3.67;;
42146;SDS011;27815;43.410;11.852;2023-11-19T22:14:52;7.25;;;3.45;;
42146;SDS011;27815;43.410;11.852;2023-11-19T22:18:55;8.10;;;3.33;;
42146;SDS011;27815;43.410;11.852;2023-11-19T22:22:57;10.23;;;3.95;;
42146;SDS011;27815;43.410;11.852;2023-11-19T22:27:00;9.07;;;3.85;;
42146;SDS011;27815;43.410;11.852;2023-11-19T22:31:03;7.88;;;3.90;;
42146;SDS011;27815;43.410;11.852;2023-11-19T22:35:06;8.00;;;3.33;;
42146;SDS011;27815;43.410;11.852;2023-11-19T22:39:10;9.60;;;4.07;;
42146;SDS011;27815;43.410;11.852;2023-11-19T22:43:14;8.13;;;3.60;;
42146;SDS011;27815;43.410;11.852;2023-11-19T22:47:17;7.72;;;3.90;;
42146;SDS011;27815;43.410;11.852;2023-11-19T22:51:20;5.85;;;3.10;;
42146;SDS011;27815;43.410;11.852;2023-11-19T22:55:23;5.82;;;2.95;;
42146;SDS011;27815;43.410;11.852;2023-11-19T22:59:26;8.50;;;3.35;;
42146;SDS011;27815;43.410;11.852;2023-11-19T23:03:29;6.22;;;2.72;;
42146;SDS011;27815;43.410;11.852;2023-11-19T23:07:34;5.75;;;3.05;;
42146;SDS011;27815;43.410;11.852;2023-11-19T23:11:37;8.38;;;2.97;;
42146;SDS011;27815;43.410;11.852;2023-11-19T23:15:40;9.43;;;3.67;;
42146;SDS011;27815;43.410;11.852;2023-11-19T23:19:43;5.80;;;3.10;;
42146;SDS011;27815;43.410;11.852;2023-11-19T23:23:47;7.68;;;3.83;;
42146;SDS011;27815;43.410;11.852;2023-11-19T23:27:50;8.75;;;3.55;;
42146;SDS011;27815;43.410;11.852;2023-11-19T23:31:53;7.82;;;3.13;;
42146;SDS011;27815;43.410;11.852;2023-11-19T23:35:56;8.25;;;3.38;;
42146;SDS011;27815;43.410;11.852;2023-11-19T23:39:59;8.25;;;3.13;;
42146;SDS011;27815;43.410;11.852;2023-11-19T23:44:03;6.50;;;3.20;;
42146;SDS011;27815;43.410;11.852;2023-11-19T23:48:06;6.47;;;2.97;;
42146;SDS011;27815;43.410;11.852;2023-11-19T23:52:09;6.45;;;3.22;;
42146;SDS011;27815;43.410;11.852;2023-11-19T23:56:12;11.95;;;7.03;;
